createdAt,value
2022-08-17T00:00:10.249Z,99607.35
2022-08-17T00:03:22.846Z,99608.70
2022-08-17T00:05:57.349Z,99608.30
2022-08-17T00:08:27.911Z,99608.97
2022-08-17T00:10:55.989Z,99602.98
2022-08-17T00:13:27.814Z,99607.91
2022-08-17T00:16:10.055Z,99611.67
2022-08-17T00:19:01.432Z,99609.75
2022-08-17T00:21:25.185Z,99610.58
2022-08-17T00:23:53.738Z,99609.68
2022-08-17T00:26:45.239Z,99606.29
2022-08-17T00:29:10.742Z,99606.94
2022-08-17T00:31:47.327Z,99609.20
2022-08-17T00:34:14.889Z,99611.74
2022-08-17T00:36:42.249Z,99611.56
2022-08-17T00:39:09.610Z,99610.67
2022-08-17T00:41:37.717Z,99617.46
2022-08-17T00:44:10.249Z,99611.21
2022-08-17T00:46:41.343Z,99612.45
2022-08-17T00:49:10.067Z,99611.05
2022-08-17T00:51:53.110Z,99611.95
2022-08-17T00:54:41.830Z,99614.23
2022-08-17T00:57:15.868Z,99614.23
2022-08-17T01:00:02.691Z,99611.64
2022-08-17T01:02:41.183Z,99613.61
2022-08-17T01:05:22.670Z,99615.29
2022-08-17T01:07:51.218Z,99617.79
2022-08-17T01:10:59.223Z,99617.80
2022-08-17T01:13:11.652Z,99620.17
2022-08-17T01:15:42.209Z,99616.80
2022-08-17T01:18:14.970Z,99615.66
2022-08-17T01:20:48.638Z,99616.29
2022-08-17T01:23:20.928Z,99611.52
2022-08-17T01:25:57.388Z,99611.98
2022-08-17T01:28:33.508Z,99607.34
2022-08-17T01:31:15.261Z,99606.77
2022-08-17T01:33:42.628Z,99605.61
2022-08-17T01:36:10.785Z,99599.96
2022-08-17T01:38:39.291Z,99598.38
2022-08-17T01:41:12.095Z,99600.90
2022-08-17T01:43:46.691Z,99602.85
2022-08-17T01:46:22.668Z,99603.36
2022-08-17T01:48:51.579Z,99606.96
2022-08-17T01:51:20.310Z,99605.43
2022-08-17T01:53:53.810Z,99608.59
2022-08-17T01:56:23.583Z,99609.09
2022-08-17T01:58:51.309Z,99608.02
2022-08-17T02:01:21.462Z,99602.77
2022-08-17T02:03:53.350Z,99599.02
2022-08-17T02:06:45.034Z,99602.77
2022-08-17T02:09:23.219Z,99599.55
2022-08-17T02:11:52.828Z,99598.63
2022-08-17T02:14:22.501Z,99597.24
2022-08-17T02:16:50.090Z,99593.05
2022-08-17T02:19:18.684Z,99594.98
2022-08-17T02:21:49.929Z,99591.67
2022-08-17T02:25:00.858Z,99590.43
2022-08-17T02:27:10.218Z,99589.27
2022-08-17T02:29:37.806Z,99585.23
2022-08-17T02:32:05.861Z,99583.52
2022-08-17T02:34:33.120Z,99579.53
2022-08-17T02:37:00.348Z,99578.17
2022-08-17T02:39:27.764Z,99575.66
2022-08-17T02:42:02.257Z,99579.83
2022-08-17T02:44:39.075Z,99584.20
2022-08-17T02:47:09.249Z,99590.59
2022-08-17T02:49:37.497Z,99590.27
2022-08-17T02:52:07.015Z,99588.88
2022-08-17T02:54:40.183Z,99592.55
2022-08-17T02:57:10.252Z,99595.45
2022-08-17T02:59:39.429Z,99596.23
2022-08-17T03:02:08.522Z,99600.40
2022-08-17T03:04:36.477Z,99602.38
2022-08-17T03:07:05.232Z,99602.54
2022-08-17T03:09:32.729Z,99602.75
2022-08-17T03:12:13.156Z,99606.14
2022-08-17T03:14:41.912Z,99608.60
2022-08-17T03:17:10.961Z,99607.10
2022-08-17T03:19:43.355Z,99605.52
2022-08-17T03:22:36.085Z,99606.73
2022-08-17T03:24:59.043Z,99605.53
2022-08-17T03:27:26.913Z,99609.10
2022-08-17T03:29:54.989Z,99607.20
2022-08-17T03:32:22.325Z,99618.13
2022-08-17T03:34:49.481Z,99618.45
2022-08-17T03:37:16.935Z,99620.18
2022-08-17T03:39:44.107Z,99623.48
2022-08-17T03:42:31.485Z,99624.96
2022-08-17T03:45:01.150Z,99622.09
2022-08-17T03:47:47.727Z,99626.71
2022-08-17T03:50:35.169Z,99630.98
2022-08-17T03:53:25.763Z,99627.85
2022-08-17T03:56:11.949Z,99630.95
2022-08-17T03:58:39.309Z,99628.12
2022-08-17T04:01:07.421Z,99631.06
2022-08-17T04:03:34.919Z,99634.09
2022-08-17T04:06:02.670Z,99633.63
2022-08-17T04:08:30.988Z,99632.14
2022-08-17T04:11:00.488Z,99635.08
2022-08-17T04:13:28.048Z,99638.20
2022-08-17T04:15:55.408Z,99640.65
2022-08-17T04:18:22.868Z,99643.06
2022-08-17T04:20:50.303Z,99644.21
2022-08-17T04:23:19.297Z,99648.61
2022-08-17T04:25:49.621Z,99657.39
2022-08-17T04:28:18.082Z,99658.40
2022-08-17T04:30:47.409Z,99655.54
2022-08-17T04:33:21.049Z,99656.29
2022-08-17T04:35:50.395Z,99657.08
2022-08-17T04:38:21.248Z,99660.40
2022-08-17T04:41:07.652Z,99662.91
2022-08-17T04:43:36.850Z,99665.19
2022-08-17T04:46:10.643Z,99666.31
2022-08-17T04:48:41.718Z,99667.80
2022-08-17T04:51:28.831Z,99664.27
2022-08-17T04:54:02.454Z,99663.77
2022-08-17T04:56:31.309Z,99666.86
2022-08-17T04:59:01.763Z,99667.04
2022-08-17T05:01:31.573Z,99663.54
2022-08-17T05:04:33.099Z,99670.34
2022-08-17T05:06:51.728Z,99665.84
2022-08-17T05:09:19.310Z,99667.80
2022-08-17T05:11:47.526Z,99666.26
2022-08-17T05:14:15.350Z,99668.18
2022-08-17T05:16:42.709Z,99670.10
2022-08-17T05:19:10.252Z,99672.91
2022-08-17T05:21:38.745Z,99675.83
2022-08-17T05:24:38.671Z,99673.52
2022-08-17T05:26:54.158Z,99668.89
2022-08-17T05:29:22.729Z,99667.05
2022-08-17T05:32:38.059Z,99667.09
2022-08-17T05:35:01.161Z,99667.70
2022-08-17T05:37:28.509Z,99670.15
2022-08-17T05:39:56.080Z,99670.98
2022-08-17T05:42:24.433Z,99670.92
2022-08-17T05:44:52.929Z,99671.18
2022-08-17T05:47:21.730Z,99667.04
2022-08-17T05:49:49.333Z,99668.09
2022-08-17T05:52:41.930Z,99666.60
2022-08-17T05:55:32.528Z,99668.15
2022-08-17T05:58:41.021Z,99673.54
2022-08-17T06:01:27.166Z,99678.58
2022-08-17T06:04:35.339Z,99670.29
2022-08-17T06:07:13.049Z,99674.29
2022-08-17T06:09:54.930Z,99682.95
2022-08-17T06:12:41.760Z,99684.63
2022-08-17T06:15:38.082Z,99683.10
2022-08-17T06:18:08.915Z,99679.59
2022-08-17T06:20:48.661Z,99681.10
2022-08-17T06:23:35.882Z,99680.70
2022-08-17T06:26:09.277Z,99681.45
2022-08-17T06:28:44.500Z,99677.34
2022-08-17T06:31:20.351Z,99679.95
2022-08-17T06:33:48.711Z,99684.20
2022-08-17T06:36:50.129Z,99685.58
2022-08-17T06:39:29.512Z,99684.96
2022-08-17T06:42:55.018Z,99687.23
2022-08-17T06:45:14.113Z,99688.89
2022-08-17T06:47:56.051Z,99692.26
2022-08-17T06:50:37.278Z,99690.22
2022-08-17T06:53:18.510Z,99692.34
2022-08-17T06:55:51.797Z,99698.46
2022-08-17T06:58:22.598Z,99698.84
2022-08-17T07:00:56.615Z,99700.58
2022-08-17T07:03:28.780Z,99703.06
2022-08-17T07:06:00.503Z,99702.41
2022-08-17T07:09:17.036Z,99701.54
2022-08-17T07:11:50.850Z,99704.80
2022-08-17T07:14:52.196Z,99709.08
2022-08-17T07:17:46.497Z,99708.23
2022-08-17T07:20:15.464Z,99710.39
2022-08-17T07:22:57.703Z,99714.83
2022-08-17T07:25:30.895Z,99713.29
2022-08-17T07:28:01.259Z,99715.45
2022-08-17T07:30:45.557Z,99718.38
2022-08-17T07:33:23.257Z,99716.23
2022-08-17T07:35:51.217Z,99716.75
2022-08-17T07:38:25.349Z,99716.82
2022-08-17T07:41:03.359Z,99720.65
2022-08-17T07:43:39.752Z,99725.19
2022-08-17T07:46:37.997Z,99725.23
2022-08-17T07:49:08.506Z,99726.55
2022-08-17T07:51:46.310Z,99728.24
2022-08-17T07:54:17.071Z,99728.61
2022-08-17T07:56:50.570Z,99726.77
2022-08-17T07:59:23.551Z,99726.13
2022-08-17T08:01:58.289Z,99726.73
2022-08-17T08:04:49.948Z,99728.33
2022-08-17T08:07:20.748Z,99724.11
2022-08-17T08:10:01.692Z,99726.73
2022-08-17T08:12:42.424Z,99727.53
2022-08-17T08:15:22.838Z,99728.83
2022-08-17T08:17:56.407Z,99727.45
2022-08-17T08:20:52.412Z,99726.83
2022-08-17T08:23:46.005Z,99724.39
2022-08-17T08:26:38.189Z,99726.29
2022-08-17T08:29:28.960Z,99723.46
2022-08-17T08:32:18.755Z,99718.43
2022-08-17T08:35:02.920Z,99718.29
2022-08-17T08:37:50.431Z,99718.80
2022-08-17T08:40:43.706Z,99727.24
2022-08-17T08:43:23.047Z,99727.72
2022-08-17T08:46:13.293Z,99727.86
2022-08-17T08:48:56.329Z,99722.73
2022-08-17T08:51:56.417Z,99720.92
2022-08-17T08:54:44.683Z,99722.19
2022-08-17T08:57:33.795Z,99718.64
2022-08-17T09:00:23.623Z,99717.92
2022-08-17T09:03:06.711Z,99718.95
2022-08-17T09:05:42.596Z,99715.52
2022-08-17T09:08:24.846Z,99715.34
2022-08-17T09:11:15.259Z,99713.80
2022-08-17T09:13:54.128Z,99715.08
2022-08-17T09:16:43.501Z,99714.94
2022-08-17T09:19:30.884Z,99717.45
2022-08-17T09:22:33.606Z,99720.55
2022-08-17T09:25:10.802Z,99718.54
2022-08-17T09:27:57.754Z,99715.34
2022-08-17T09:30:36.619Z,99717.52
2022-08-17T09:33:08.141Z,99711.37
2022-08-17T09:35:44.778Z,99709.36
2022-08-17T09:38:28.092Z,99707.13
2022-08-17T09:41:49.142Z,99706.08
2022-08-17T09:44:22.928Z,99706.51
2022-08-17T09:47:11.396Z,99706.95
2022-08-17T09:50:02.299Z,99707.05
2022-08-17T09:52:31.166Z,99710.17
2022-08-17T09:54:59.830Z,99715.33
2022-08-17T09:57:32.937Z,99713.46
2022-08-17T10:00:00.192Z,99715.95
2022-08-17T10:02:41.193Z,99713.74
2022-08-17T10:05:22.059Z,99704.07
2022-08-17T10:08:08.982Z,99705.68
2022-08-17T10:10:52.474Z,99704.31
2022-08-17T10:13:45.952Z,99704.41
2022-08-17T10:16:31.620Z,99707.96
2022-08-17T10:19:30.265Z,99712.06
2022-08-17T10:22:34.508Z,99707.57
2022-08-17T10:25:27.915Z,99705.75
2022-08-17T10:28:19.706Z,99706.02
2022-08-17T10:31:05.254Z,99705.89
2022-08-17T10:33:58.084Z,99703.76
2022-08-17T10:36:40.813Z,99704.52
2022-08-17T10:39:08.939Z,99705.06
2022-08-17T10:41:47.975Z,99706.23
2022-08-17T10:44:51.169Z,99707.89
2022-08-17T10:47:19.816Z,99713.86
2022-08-17T10:49:54.232Z,99714.41
2022-08-17T10:52:26.839Z,99714.73
2022-08-17T10:54:59.545Z,99713.39
2022-08-17T10:57:32.956Z,99720.08
2022-08-17T11:00:16.397Z,99723.54
2022-08-17T11:02:55.009Z,99721.92
2022-08-17T11:05:43.734Z,99718.55
2022-08-17T11:08:34.224Z,99722.61
2022-08-17T11:11:24.292Z,99716.80
2022-08-17T11:14:14.822Z,99713.61
2022-08-17T11:16:59.106Z,99706.40
2022-08-17T11:19:54.472Z,99708.13
2022-08-17T11:22:33.486Z,99707.19
2022-08-17T11:25:21.555Z,99703.48
2022-08-17T11:27:53.982Z,99699.15
2022-08-17T11:31:00.321Z,99697.64
2022-08-17T11:33:30.532Z,99695.67
2022-08-17T11:36:23.553Z,99692.77
2022-08-17T11:39:07.163Z,99690.06
2022-08-17T11:42:01.290Z,99688.46
2022-08-17T11:44:55.432Z,99684.40
2022-08-17T11:48:25.917Z,99687.28
2022-08-17T11:51:16.942Z,99681.55
2022-08-17T11:53:45.244Z,99676.63
2022-08-17T11:56:32.164Z,99675.70
2022-08-17T11:59:01.305Z,99674.69
2022-08-17T12:01:32.022Z,99668.70
2022-08-17T12:04:20.109Z,99670.86
2022-08-17T12:06:51.199Z,99663.80
2022-08-17T12:09:20.553Z,99662.42
2022-08-17T12:12:11.161Z,99667.54
2022-08-17T12:15:09.051Z,99662.56
2022-08-17T12:17:50.652Z,99664.39
2022-08-17T12:20:28.217Z,99665.73
2022-08-17T12:23:09.706Z,99663.65
2022-08-17T12:25:57.149Z,99661.52
2022-08-17T12:28:30.336Z,99660.15
2022-08-17T12:31:07.424Z,99659.05
2022-08-17T12:33:37.003Z,99653.61
2022-08-17T12:36:07.901Z,99653.23
2022-08-17T12:38:36.974Z,99655.59
2022-08-17T12:41:26.661Z,99655.38
2022-08-17T12:44:05.682Z,99656.98
2022-08-17T12:46:45.629Z,99656.84
2022-08-17T12:49:21.343Z,99659.58
2022-08-17T12:51:49.329Z,99660.63
2022-08-17T12:54:27.860Z,99657.67
2022-08-17T12:56:56.043Z,99658.98
2022-08-17T12:59:30.252Z,99652.04
2022-08-17T13:01:58.185Z,99650.51
2022-08-17T13:04:26.490Z,99647.32
2022-08-17T13:06:59.790Z,99644.92
2022-08-17T13:09:35.743Z,99650.70
2022-08-17T13:12:07.670Z,99649.33
2022-08-17T13:14:35.723Z,99643.77
2022-08-17T13:17:09.849Z,99640.48
2022-08-17T13:19:48.752Z,99638.91
2022-08-17T13:22:15.927Z,99640.35
2022-08-17T13:24:57.489Z,99640.02
2022-08-17T13:27:26.970Z,99640.90
2022-08-17T13:29:58.449Z,99641.36
2022-08-17T13:32:33.481Z,99641.29
2022-08-17T13:35:15.598Z,99630.21
2022-08-17T13:37:58.469Z,99626.42
2022-08-17T13:40:32.585Z,99625.41
2022-08-17T13:42:59.787Z,99625.68
2022-08-17T13:45:36.637Z,99621.17
2022-08-17T13:48:26.197Z,99621.17
2022-08-17T13:50:59.970Z,99626.23
2022-08-17T13:53:51.571Z,99632.15
2022-08-17T13:56:38.785Z,99630.83
2022-08-17T13:59:17.187Z,99623.90
2022-08-17T14:02:05.274Z,99628.52
2022-08-17T14:04:33.575Z,99626.59
2022-08-17T14:07:13.247Z,99627.69
2022-08-17T14:09:46.361Z,99624.83
2022-08-17T14:12:17.586Z,99618.57
2022-08-17T14:14:45.530Z,99616.27
2022-08-17T14:17:13.105Z,99618.70
2022-08-17T14:19:40.365Z,99621.23
2022-08-17T14:22:09.367Z,99617.48
2022-08-17T14:24:44.659Z,99619.77
2022-08-17T14:27:12.512Z,99614.30
2022-08-17T14:29:41.739Z,99612.17
2022-08-17T14:32:22.509Z,99613.39
2022-08-17T14:34:50.274Z,99610.05
2022-08-17T14:37:18.931Z,99608.98
2022-08-17T14:39:46.407Z,99603.63
2022-08-17T14:42:15.505Z,99604.09
2022-08-17T14:44:42.734Z,99611.39
2022-08-17T14:47:15.379Z,99611.69
2022-08-17T14:49:42.675Z,99613.43
2022-08-17T14:52:11.378Z,99608.39
2022-08-17T14:54:42.507Z,99607.14
2022-08-17T14:57:25.859Z,99604.98
2022-08-17T15:00:00.798Z,99611.44
2022-08-17T15:02:30.387Z,99616.47
2022-08-17T15:05:03.226Z,99613.58
2022-08-17T15:07:31.279Z,99613.77
2022-08-17T15:10:01.736Z,99612.04
2022-08-17T15:12:33.720Z,99616.33
2022-08-17T15:15:05.731Z,99618.59
2022-08-17T15:17:44.862Z,99620.88
2022-08-17T15:20:23.242Z,99618.39
2022-08-17T15:22:51.645Z,99622.16
2022-08-17T15:25:19.429Z,99621.58
2022-08-17T15:27:47.815Z,99617.61
2022-08-17T15:30:16.036Z,99610.21
2022-08-17T15:32:51.060Z,99613.81
2022-08-17T15:35:28.273Z,99617.78
2022-08-17T15:38:11.716Z,99618.25
2022-08-17T15:40:47.960Z,99615.67
2022-08-17T15:43:27.350Z,99613.61
2022-08-17T15:46:03.713Z,99618.84
2022-08-17T15:48:44.910Z,99620.55
2022-08-17T15:51:33.170Z,99622.90
2022-08-17T15:54:04.414Z,99628.90
2022-08-17T15:56:45.310Z,99628.02
2022-08-17T15:59:13.047Z,99625.67
2022-08-17T16:03:14.446Z,99629.44
2022-08-17T16:04:30.881Z,99627.95
2022-08-17T16:07:00.557Z,99625.67
2022-08-17T16:09:28.390Z,99626.36
2022-08-17T16:11:56.312Z,99628.60
2022-08-17T16:14:32.367Z,99630.67
2022-08-17T16:17:01.633Z,99632.33
2022-08-17T16:19:29.177Z,99634.17
2022-08-17T16:21:56.953Z,99637.27
2022-08-17T16:24:25.064Z,99636.61
2022-08-17T16:26:52.348Z,99632.82
2022-08-17T16:29:19.563Z,99631.78
2022-08-17T16:31:46.848Z,99634.39
2022-08-17T16:34:17.093Z,99634.91
2022-08-17T16:36:55.663Z,99632.67
2022-08-17T16:39:26.020Z,99634.30
2022-08-17T16:41:53.719Z,99632.03
2022-08-17T16:44:22.123Z,99633.67
2022-08-17T16:46:49.532Z,99630.82
2022-08-17T16:49:36.293Z,99628.56
2022-08-17T16:52:07.573Z,99630.02
2022-08-17T16:54:36.055Z,99626.15
2022-08-17T16:57:05.696Z,99628.36
2022-08-17T16:59:40.701Z,99625.59
2022-08-17T17:02:12.855Z,99627.73
2022-08-17T17:05:20.990Z,99627.39
2022-08-17T17:08:14.776Z,99626.64
2022-08-17T17:10:56.077Z,99621.64
2022-08-17T17:13:41.271Z,99622.05
2022-08-17T17:16:45.674Z,99621.05
2022-08-17T17:19:34.638Z,99618.41
2022-08-17T17:22:08.009Z,99620.40
2022-08-17T17:24:50.066Z,99619.36
2022-08-17T17:27:37.843Z,99619.15
2022-08-17T17:30:12.318Z,99625.73
2022-08-17T17:32:47.074Z,99626.44
2022-08-17T17:35:25.702Z,99626.30
2022-08-17T17:37:53.764Z,99624.95
2022-08-17T17:40:29.587Z,99620.71
2022-08-17T17:43:14.164Z,99619.04
2022-08-17T17:45:53.634Z,99611.41
2022-08-17T17:48:21.389Z,99606.88
2022-08-17T17:52:03.695Z,99608.25
2022-08-17T17:54:46.117Z,99614.69
2022-08-17T17:57:45.502Z,99619.79
2022-08-17T18:00:13.159Z,99621.02
2022-08-17T18:02:52.000Z,99626.11
2022-08-17T18:06:00.569Z,99625.43
2022-08-17T18:08:49.965Z,99626.64
2022-08-17T18:11:53.486Z,99620.13
2022-08-17T18:14:42.348Z,99619.58
2022-08-17T18:17:09.897Z,99616.80
2022-08-17T18:19:40.543Z,99612.55
2022-08-17T18:22:14.026Z,99616.63
2022-08-17T18:24:48.773Z,99626.15
2022-08-17T18:27:30.155Z,99630.14
2022-08-17T18:29:59.393Z,99632.64
2022-08-17T18:32:33.585Z,99635.03
2022-08-17T18:35:03.083Z,99641.83
2022-08-17T18:37:43.248Z,99646.16
2022-08-17T18:40:16.940Z,99648.11
2022-08-17T18:42:46.961Z,99647.08
2022-08-17T18:45:34.265Z,99641.11
2022-08-17T18:48:02.352Z,99640.55
2022-08-17T18:50:41.691Z,99640.77
2022-08-17T18:53:21.013Z,99639.05
2022-08-17T18:56:40.163Z,99642.74
2022-08-17T18:59:17.545Z,99643.36
2022-08-17T19:01:59.191Z,99644.58
2022-08-17T19:04:30.486Z,99642.58
2022-08-17T19:07:25.422Z,99645.36
2022-08-17T19:10:11.595Z,99648.74
2022-08-17T19:12:46.844Z,99650.18
2022-08-17T19:15:16.873Z,99650.44
2022-08-17T19:17:47.121Z,99647.23
2022-08-17T19:20:31.527Z,99645.66
2022-08-17T19:23:10.239Z,99649.20
2022-08-17T19:25:50.702Z,99651.80
2022-08-17T19:28:28.505Z,99655.64
2022-08-17T19:30:58.577Z,99657.05
2022-08-17T19:33:26.554Z,99660.04
2022-08-17T19:36:27.441Z,99664.58
2022-08-17T19:39:10.554Z,99668.58
2022-08-17T19:41:48.673Z,99675.64
2022-08-17T19:44:28.305Z,99680.58
2022-08-17T19:47:53.883Z,99680.41
2022-08-17T19:50:54.183Z,99677.98
2022-08-17T19:54:04.517Z,99683.50
2022-08-17T19:56:43.530Z,99685.03
2022-08-17T19:59:49.917Z,99686.05
2022-08-17T20:02:21.198Z,99683.91
2022-08-17T20:04:50.609Z,99680.53
2022-08-17T20:07:27.686Z,99679.18
2022-08-17T20:10:32.066Z,99680.81
2022-08-17T20:13:04.840Z,99678.90
2022-08-17T20:15:36.413Z,99671.83
2022-08-17T20:18:10.101Z,99663.95
2022-08-17T20:21:00.237Z,99664.15
2022-08-17T20:24:06.621Z,99662.23
2022-08-17T20:26:55.366Z,99667.27
2022-08-17T20:30:05.459Z,99659.04
2022-08-17T20:32:38.258Z,99659.96
2022-08-17T20:35:19.455Z,99655.25
2022-08-17T20:38:05.327Z,99653.13
2022-08-17T20:40:41.487Z,99651.23
2022-08-17T20:43:30.375Z,99650.52
2022-08-17T20:46:11.345Z,99648.48
2022-08-17T20:48:43.088Z,99651.27
2022-08-17T20:51:29.259Z,99655.30
2022-08-17T20:54:01.345Z,99656.14
2022-08-17T20:56:44.064Z,99652.25
2022-08-17T20:59:27.897Z,99648.63
2022-08-17T21:02:19.097Z,99650.91
2022-08-17T21:04:54.963Z,99650.58
2022-08-17T21:07:43.475Z,99649.23
2022-08-17T21:10:26.544Z,99650.62
2022-08-17T21:13:25.964Z,99648.56
2022-08-17T21:16:01.404Z,99648.77
2022-08-17T21:19:07.538Z,99644.20
2022-08-17T21:21:58.764Z,99645.01
2022-08-17T21:24:35.284Z,99647.01
2022-08-17T21:27:24.205Z,99645.20
2022-08-17T21:30:16.323Z,99648.84
2022-08-17T21:32:45.957Z,99653.25
2022-08-17T21:35:20.383Z,99657.45
2022-08-17T21:37:49.327Z,99656.41
2022-08-17T21:40:19.308Z,99652.39
2022-08-17T21:42:51.787Z,99655.03
2022-08-17T21:45:29.916Z,99662.35
2022-08-17T21:48:16.134Z,99669.19
2022-08-17T21:51:12.434Z,99674.16
2022-08-17T21:53:49.343Z,99671.32
2022-08-17T21:56:47.017Z,99669.25
2022-08-17T21:59:36.911Z,99666.02
2022-08-17T22:02:08.183Z,99663.62
2022-08-17T22:04:40.922Z,99663.08
2022-08-17T22:07:13.498Z,99664.21
2022-08-17T22:09:48.204Z,99665.42
2022-08-17T22:12:21.830Z,99667.48
2022-08-17T22:15:01.463Z,99670.73
2022-08-17T22:17:33.548Z,99672.02
2022-08-17T22:20:02.031Z,99677.45
2022-08-17T22:22:32.516Z,99680.30
2022-08-17T22:25:13.967Z,99688.16
2022-08-17T22:28:02.001Z,99687.80
2022-08-17T22:30:44.503Z,99687.11
2022-08-17T22:33:30.867Z,99690.04
2022-08-17T22:36:20.321Z,99698.80
2022-08-17T22:38:50.770Z,99702.50
2022-08-17T22:41:52.842Z,99699.73
2022-08-17T22:44:29.943Z,99690.62
2022-08-17T22:46:59.546Z,99692.45
2022-08-17T22:49:29.958Z,99696.70
2022-08-17T22:52:02.803Z,99698.73
2022-08-17T22:54:49.548Z,99701.27
2022-08-17T22:57:36.279Z,99705.66
2022-08-17T23:00:05.403Z,99708.00
2022-08-17T23:02:34.762Z,99705.88
2022-08-17T23:05:13.231Z,99710.02
2022-08-17T23:07:42.489Z,99709.81
2022-08-17T23:10:11.923Z,99717.92
2022-08-17T23:12:40.170Z,99714.96
2022-08-17T23:15:16.286Z,99716.61
2022-08-17T23:17:45.038Z,99712.89
2022-08-17T23:20:14.482Z,99714.31
2022-08-17T23:22:51.939Z,99719.05
2022-08-17T23:25:30.209Z,99717.89
2022-08-17T23:27:59.001Z,99711.40
2022-08-17T23:30:28.826Z,99709.87
2022-08-17T23:32:57.120Z,99712.96
2022-08-17T23:35:39.588Z,99712.85
2022-08-17T23:38:13.211Z,99708.29
2022-08-17T23:40:41.365Z,99703.96
2022-08-17T23:45:59.967Z,99702.56
2022-08-17T23:48:36.224Z,99707.99
2022-08-17T23:51:15.939Z,99699.23
2022-08-17T23:53:48.009Z,99695.11
2022-08-17T23:56:15.671Z,99699.95
2022-08-17T23:58:45.084Z,99699.95
